createdAt,value
2022-12-06T00:02:37.752Z,7.30
2022-12-06T00:05:23.531Z,7.20
2022-12-06T00:08:11.953Z,7.10
2022-12-06T00:11:09.553Z,7.10
2022-12-06T00:13:57.518Z,7.10
2022-12-06T00:16:43.042Z,7.10
2022-12-06T00:19:28.595Z,7.10
2022-12-06T00:22:14.207Z,7.10
2022-12-06T00:24:59.746Z,7.20
2022-12-06T00:27:46.823Z,7.20
2022-12-06T00:30:32.359Z,7.30
2022-12-06T00:33:20.899Z,7.30
2022-12-06T00:36:31.540Z,7.30
2022-12-06T00:39:17.941Z,7.30
2022-12-06T00:42:03.249Z,7.30
2022-12-06T00:44:50.101Z,7.30
2022-12-06T00:47:35.663Z,7.20
2022-12-06T00:50:22.437Z,7.20
2022-12-06T00:53:07.593Z,7.20
2022-12-06T00:55:55.156Z,7.20
2022-12-06T00:58:48.682Z,7.20
2022-12-06T01:01:36.573Z,7.20
2022-12-06T01:04:22.429Z,7.20
2022-12-06T01:07:07.933Z,7.20
2022-12-06T01:09:53.782Z,7.20
2022-12-06T01:12:39.089Z,7.20
2022-12-06T01:15:24.710Z,7.20
2022-12-06T01:18:09.836Z,7.20
2022-12-06T01:20:55.228Z,7.20
2022-12-06T01:23:41.240Z,7.30
2022-12-06T01:26:30.174Z,7.30
2022-12-06T01:29:17.192Z,7.30
2022-12-06T01:32:02.719Z,7.30
2022-12-06T01:34:52.288Z,7.30
2022-12-06T01:37:37.746Z,7.30
2022-12-06T01:40:23.356Z,7.30
2022-12-06T01:43:30.769Z,7.30
2022-12-06T01:46:28.166Z,7.30
2022-12-06T01:49:17.390Z,7.30
2022-12-06T01:52:08.007Z,7.30
2022-12-06T01:54:56.915Z,7.30
2022-12-06T01:57:42.425Z,7.30
2022-12-06T02:00:27.741Z,7.30
2022-12-06T02:03:19.378Z,7.30
2022-12-06T02:06:06.786Z,7.40
2022-12-06T02:08:55.165Z,7.30
2022-12-06T02:11:41.370Z,7.30
2022-12-06T02:14:32.813Z,7.30
2022-12-06T02:17:38.721Z,7.30
2022-12-06T02:20:39.401Z,7.40
2022-12-06T02:23:47.750Z,7.40
2022-12-06T02:26:38.651Z,7.40
2022-12-06T02:29:30.490Z,7.40
2022-12-06T02:32:27.843Z,7.40
2022-12-06T02:35:38.425Z,7.40
2022-12-06T02:38:53.971Z,7.40
2022-12-06T02:42:07.365Z,7.40
2022-12-06T02:45:02.490Z,7.40
2022-12-06T02:47:50.720Z,7.40
2022-12-06T02:50:49.957Z,7.40
2022-12-06T02:53:38.914Z,7.30
2022-12-06T02:56:24.997Z,7.30
2022-12-06T02:59:10.846Z,7.30
2022-12-06T03:01:59.712Z,7.30
2022-12-06T03:05:09.690Z,7.30
2022-12-06T03:07:55.998Z,7.30
2022-12-06T03:10:52.655Z,7.30
2022-12-06T03:13:55.997Z,7.30
2022-12-06T03:17:07.822Z,7.30
2022-12-06T03:20:02.795Z,7.30
2022-12-06T03:22:53.726Z,7.30
2022-12-06T03:25:39.790Z,7.30
2022-12-06T03:28:25.919Z,7.30
2022-12-06T03:31:13.123Z,7.30
2022-12-06T03:34:11.236Z,7.30
2022-12-06T03:36:58.035Z,7.30
2022-12-06T03:39:51.727Z,7.30
2022-12-06T03:42:40.299Z,7.30
2022-12-06T03:45:33.504Z,7.30
2022-12-06T03:48:31.250Z,7.30
2022-12-06T03:51:23.056Z,7.30
2022-12-06T03:54:09.296Z,7.30
2022-12-06T03:56:54.805Z,7.30
2022-12-06T03:59:40.304Z,7.30
2022-12-06T04:02:25.505Z,7.30
2022-12-06T04:05:11.683Z,7.40
2022-12-06T04:07:57.134Z,7.30
2022-12-06T04:10:42.410Z,7.30
2022-12-06T04:13:28.510Z,7.30
2022-12-06T04:16:32.557Z,7.30
2022-12-06T04:19:21.280Z,7.20
2022-12-06T04:22:28.096Z,7.10
2022-12-06T04:25:17.044Z,7.00
2022-12-06T04:28:22.071Z,6.90
2022-12-06T04:31:26.026Z,6.80
2022-12-06T04:34:30.535Z,6.90
2022-12-06T04:37:34.299Z,6.90
2022-12-06T04:40:20.618Z,7.00
2022-12-06T04:43:24.515Z,7.00
2022-12-06T04:46:15.770Z,7.00
2022-12-06T04:49:00.922Z,6.90
2022-12-06T04:51:46.450Z,6.90
2022-12-06T04:54:32.175Z,6.90
2022-12-06T04:57:17.826Z,6.80
2022-12-06T05:00:04.447Z,6.80
2022-12-06T05:02:50.175Z,6.80
2022-12-06T05:05:35.429Z,6.80
2022-12-06T05:08:21.154Z,6.80
2022-12-06T05:11:07.014Z,6.80
2022-12-06T05:13:52.654Z,6.80
2022-12-06T05:16:37.902Z,6.80
2022-12-06T05:19:23.414Z,6.80
2022-12-06T05:22:08.595Z,6.80
2022-12-06T05:24:54.206Z,6.80
2022-12-06T05:27:39.838Z,6.60
2022-12-06T05:30:25.112Z,6.50
2022-12-06T05:33:10.816Z,6.40
2022-12-06T05:35:57.276Z,6.40
2022-12-06T05:38:47.121Z,6.40
2022-12-06T05:41:36.106Z,6.40
2022-12-06T05:44:21.816Z,6.40
2022-12-06T05:47:07.542Z,6.30
2022-12-06T05:49:52.689Z,6.30
2022-12-06T05:52:38.378Z,6.20
2022-12-06T05:55:24.584Z,6.20
2022-12-06T05:58:10.649Z,6.20
2022-12-06T06:00:56.640Z,6.20
2022-12-06T06:03:47.116Z,6.20
2022-12-06T06:06:33.435Z,6.20
2022-12-06T06:09:21.083Z,6.30
2022-12-06T06:12:11.000Z,6.30
2022-12-06T06:15:25.850Z,6.30
2022-12-06T06:18:11.558Z,6.20
2022-12-06T06:21:00.953Z,6.20
2022-12-06T06:23:46.357Z,6.20
2022-12-06T06:26:31.657Z,6.20
2022-12-06T06:29:17.134Z,6.20
2022-12-06T06:32:05.935Z,6.10
2022-12-06T06:34:51.705Z,6.10
2022-12-06T06:37:37.003Z,6.10
2022-12-06T06:40:22.746Z,6.00
2022-12-06T06:43:23.617Z,5.90
2022-12-06T06:46:09.938Z,5.80
2022-12-06T06:48:57.040Z,5.60
2022-12-06T06:51:42.239Z,5.50
2022-12-06T06:54:28.103Z,5.40
2022-12-06T06:57:17.609Z,5.30
2022-12-06T07:00:05.022Z,5.20
2022-12-06T07:02:50.780Z,5.10
2022-12-06T07:05:35.905Z,5.00
2022-12-06T07:08:21.490Z,4.90
2022-12-06T07:11:10.191Z,4.90
2022-12-06T07:13:58.387Z,4.90
2022-12-06T07:16:43.802Z,4.80
2022-12-06T07:19:28.934Z,4.80
2022-12-06T07:22:14.627Z,4.70
2022-12-06T07:25:00.109Z,4.70
2022-12-06T07:27:45.933Z,4.70
2022-12-06T07:30:31.783Z,4.60
2022-12-06T07:33:17.194Z,4.60
2022-12-06T07:36:11.979Z,4.60
2022-12-06T07:38:59.414Z,4.50
2022-12-06T07:42:03.195Z,4.50
2022-12-06T07:45:05.485Z,4.50
2022-12-06T07:47:54.082Z,4.50
2022-12-06T07:50:39.515Z,4.50
2022-12-06T07:53:25.201Z,4.50
2022-12-06T07:56:10.685Z,4.50
2022-12-06T07:58:56.047Z,4.50
2022-12-06T08:01:43.427Z,4.50
2022-12-06T08:04:29.209Z,4.50
2022-12-06T08:07:15.046Z,4.50
2022-12-06T08:10:00.959Z,4.50
2022-12-06T08:12:46.812Z,4.50
2022-12-06T08:15:32.156Z,4.50
2022-12-06T08:18:17.764Z,4.60
2022-12-06T08:21:07.216Z,4.60
2022-12-06T08:23:54.293Z,4.60
2022-12-06T08:26:39.977Z,4.60
2022-12-06T08:29:26.484Z,4.60
2022-12-06T08:32:12.470Z,4.60
2022-12-06T08:34:57.799Z,4.70
2022-12-06T08:37:43.368Z,4.70
2022-12-06T08:40:28.509Z,4.70
2022-12-06T08:43:14.187Z,4.70
2022-12-06T08:45:59.538Z,4.80
2022-12-06T08:48:44.836Z,4.90
2022-12-06T08:51:32.378Z,5.00
2022-12-06T08:54:21.517Z,5.20
2022-12-06T08:57:06.642Z,5.40
2022-12-06T08:59:52.452Z,5.50
2022-12-06T09:02:42.257Z,5.50
2022-12-06T09:05:27.600Z,5.50
2022-12-06T09:08:13.392Z,5.50
2022-12-06T09:10:58.687Z,5.60
2022-12-06T09:13:44.457Z,5.60
2022-12-06T09:16:30.062Z,5.70
2022-12-06T09:19:15.929Z,5.80
2022-12-06T09:22:04.646Z,6.10
2022-12-06T09:24:50.223Z,6.40
2022-12-06T09:27:38.268Z,6.70
2022-12-06T09:30:25.419Z,6.90
2022-12-06T09:33:13.551Z,7.20
2022-12-06T09:36:14.595Z,7.40
2022-12-06T09:39:03.210Z,7.70
2022-12-06T09:42:22.708Z,7.80
2022-12-06T09:45:26.454Z,8.00
2022-12-06T09:48:14.522Z,8.20
2022-12-06T09:51:18.428Z,8.30
2022-12-06T09:54:46.124Z,8.50
2022-12-06T09:57:40.340Z,8.50
2022-12-06T10:00:29.310Z,8.60
2022-12-06T10:03:57.363Z,8.70
2022-12-06T10:07:19.850Z,8.90
2022-12-06T10:10:34.537Z,9.00
2022-12-06T10:13:33.698Z,9.00
2022-12-06T10:16:37.005Z,9.10
2022-12-06T10:19:52.698Z,9.20
2022-12-06T10:23:15.292Z,9.30
2022-12-06T10:26:10.066Z,9.40
2022-12-06T10:29:29.595Z,9.40
2022-12-06T10:32:40.459Z,9.60
2022-12-06T10:35:55.690Z,9.80
2022-12-06T10:39:12.391Z,9.80
2022-12-06T10:41:57.642Z,9.80
2022-12-06T10:44:55.775Z,9.80
2022-12-06T10:47:44.650Z,9.80
2022-12-06T10:50:36.733Z,9.90
2022-12-06T10:53:25.287Z,9.90
2022-12-06T10:56:40.036Z,9.90
2022-12-06T10:59:44.130Z,10.00
2022-12-06T11:02:53.674Z,10.30
2022-12-06T11:05:51.555Z,10.90
2022-12-06T11:08:48.979Z,11.20
2022-12-06T11:11:36.553Z,11.40
2022-12-06T11:14:38.485Z,11.40
2022-12-06T11:17:28.107Z,11.50
2022-12-06T11:20:29.966Z,11.50
2022-12-06T11:23:35.826Z,11.40
2022-12-06T11:26:22.831Z,11.50
2022-12-06T11:29:14.049Z,11.70
2022-12-06T11:32:07.662Z,12.00
2022-12-06T11:34:56.555Z,12.10
2022-12-06T11:37:49.223Z,12.00
2022-12-06T11:40:41.626Z,11.90
2022-12-06T11:43:35.175Z,11.90
2022-12-06T11:46:22.770Z,12.90
2022-12-06T11:49:18.553Z,13.90
2022-12-06T11:52:10.546Z,15.00
2022-12-06T11:55:16.677Z,16.00
2022-12-06T11:58:12.790Z,16.40
2022-12-06T12:01:10.931Z,16.90
2022-12-06T12:03:56.741Z,17.50
2022-12-06T12:06:42.417Z,17.70
2022-12-06T12:09:32.636Z,17.70
2022-12-06T12:12:26.437Z,17.40
2022-12-06T12:15:18.064Z,16.70
2022-12-06T12:18:06.175Z,16.00
2022-12-06T12:20:56.278Z,15.50
2022-12-06T12:23:47.241Z,15.10
2022-12-06T12:26:40.314Z,14.70
2022-12-06T12:29:25.436Z,14.00
2022-12-06T12:32:11.716Z,13.50
2022-12-06T12:34:56.987Z,13.20
2022-12-06T12:37:42.690Z,12.80
2022-12-06T12:40:33.917Z,12.50
2022-12-06T12:43:30.312Z,12.30
2022-12-06T12:46:21.621Z,12.10
2022-12-06T12:49:29.806Z,12.00
2022-12-06T12:52:29.393Z,11.70
2022-12-06T12:55:15.545Z,11.50
2022-12-06T12:58:01.171Z,11.40
2022-12-06T13:00:51.295Z,11.40
2022-12-06T13:03:51.181Z,11.40
2022-12-06T13:06:47.004Z,11.50
2022-12-06T13:09:50.505Z,11.70
2022-12-06T13:12:40.306Z,12.10
2022-12-06T13:15:47.335Z,13.00
2022-12-06T13:18:41.257Z,13.80
2022-12-06T13:21:31.796Z,15.00
2022-12-06T13:24:34.569Z,15.90
2022-12-06T13:27:25.433Z,16.10
2022-12-06T13:30:21.420Z,15.80
2022-12-06T13:33:17.746Z,15.50
2022-12-06T13:36:15.013Z,15.00
2022-12-06T13:39:46.652Z,14.50
2022-12-06T13:42:39.880Z,14.20
2022-12-06T13:45:45.602Z,13.80
2022-12-06T13:48:51.715Z,13.20
2022-12-06T13:51:43.078Z,12.70
2022-12-06T13:54:31.629Z,12.40
2022-12-06T13:57:24.445Z,12.00
2022-12-06T14:00:28.404Z,11.70
2022-12-06T14:03:14.291Z,11.40
2022-12-06T14:06:12.178Z,11.20
2022-12-06T14:09:04.538Z,11.10
2022-12-06T14:11:50.703Z,10.90
2022-12-06T14:14:36.346Z,10.80
2022-12-06T14:17:59.283Z,10.70
2022-12-06T14:20:31.615Z,10.60
2022-12-06T14:23:39.957Z,10.50
2022-12-06T14:26:30.995Z,10.40
2022-12-06T14:29:22.932Z,10.30
2022-12-06T14:32:08.701Z,10.20
2022-12-06T14:35:11.443Z,10.20
2022-12-06T14:38:00.098Z,10.00
2022-12-06T14:41:04.248Z,10.00
2022-12-06T14:43:49.500Z,9.90
2022-12-06T14:46:35.712Z,9.90
2022-12-06T14:49:40.841Z,9.80
2022-12-06T14:52:31.520Z,9.80
2022-12-06T14:55:19.599Z,9.70
2022-12-06T14:58:16.555Z,9.60
2022-12-06T15:01:04.399Z,9.50
2022-12-06T15:04:04.810Z,9.40
2022-12-06T15:06:59.447Z,9.40
2022-12-06T15:09:46.077Z,9.30
2022-12-06T15:12:52.899Z,9.30
2022-12-06T15:15:45.971Z,9.10
2022-12-06T15:18:55.071Z,9.00
2022-12-06T15:21:41.305Z,8.90
2022-12-06T15:24:28.668Z,8.80
2022-12-06T15:27:17.446Z,8.80
2022-12-06T15:30:03.605Z,8.70
2022-12-06T15:32:49.687Z,8.70
2022-12-06T15:35:37.271Z,8.70
2022-12-06T15:38:22.431Z,8.70
2022-12-06T15:41:16.006Z,8.70
2022-12-06T15:44:01.487Z,8.70
2022-12-06T15:46:47.162Z,8.60
2022-12-06T15:49:32.958Z,8.60
2022-12-06T15:52:23.025Z,8.50
2022-12-06T15:55:16.857Z,8.50
2022-12-06T15:58:02.160Z,8.50
2022-12-06T16:00:50.102Z,8.50
2022-12-06T16:03:36.481Z,8.50
2022-12-06T16:06:23.982Z,8.50
2022-12-06T16:09:09.435Z,8.50
2022-12-06T16:11:54.646Z,8.60
2022-12-06T16:14:42.763Z,8.60
2022-12-06T16:17:28.174Z,8.60
2022-12-06T16:20:32.420Z,8.50
2022-12-06T16:26:48.376Z,8.50
2022-12-06T16:29:34.688Z,8.50
2022-12-06T16:32:20.208Z,8.50
2022-12-06T16:35:07.735Z,8.50
2022-12-06T16:37:56.422Z,8.50
2022-12-06T16:40:43.561Z,8.40
2022-12-06T16:43:29.219Z,8.40
2022-12-06T16:46:29.803Z,8.40
2022-12-06T16:52:29.578Z,8.40
2022-12-06T16:55:18.292Z,8.40
2022-12-06T16:58:04.498Z,8.30
2022-12-06T17:00:49.939Z,8.30
2022-12-06T17:03:35.174Z,8.30
2022-12-06T17:06:21.345Z,8.30
2022-12-06T17:09:06.718Z,8.30
2022-12-06T17:12:06.254Z,8.30
2022-12-06T17:14:57.421Z,8.20
2022-12-06T17:17:43.329Z,8.20
2022-12-06T17:20:28.655Z,8.10
2022-12-06T17:23:15.468Z,8.10
2022-12-06T17:26:01.719Z,8.10
2022-12-06T17:28:47.505Z,8.00
2022-12-06T17:31:33.322Z,7.90
2022-12-06T17:34:23.719Z,8.00
2022-12-06T17:37:09.618Z,8.00
2022-12-06T17:39:55.267Z,8.00
2022-12-06T17:43:00.611Z,7.90
2022-12-06T17:45:48.955Z,7.90
2022-12-06T17:48:37.932Z,7.80
2022-12-06T17:51:27.220Z,7.80
2022-12-06T17:54:16.444Z,7.90
2022-12-06T17:57:04.325Z,7.90
2022-12-06T17:59:50.989Z,7.90
2022-12-06T18:02:37.025Z,7.80
2022-12-06T18:05:22.613Z,7.70
2022-12-06T18:08:08.054Z,7.60
2022-12-06T18:11:02.779Z,7.50
2022-12-06T18:13:48.421Z,7.50
2022-12-06T18:16:54.359Z,7.40
2022-12-06T18:19:41.058Z,7.50
2022-12-06T18:22:26.143Z,7.50
2022-12-06T18:25:11.630Z,7.60
2022-12-06T18:27:57.308Z,7.70
2022-12-06T18:30:43.026Z,7.70
2022-12-06T18:33:31.110Z,7.80
2022-12-06T18:36:16.734Z,7.80
2022-12-06T18:39:06.453Z,7.80
2022-12-06T18:41:56.363Z,7.70
2022-12-06T18:44:41.859Z,7.60
2022-12-06T18:47:27.697Z,7.60
2022-12-06T18:50:15.665Z,7.60
2022-12-06T18:53:01.582Z,7.60
2022-12-06T18:55:49.278Z,7.60
2022-12-06T18:58:36.165Z,7.60
2022-12-06T19:01:28.046Z,7.60
2022-12-06T19:04:14.885Z,7.60
2022-12-06T19:07:00.361Z,7.50
2022-12-06T19:09:45.885Z,7.30
2022-12-06T19:12:32.439Z,7.20
2022-12-06T19:15:18.031Z,7.20
2022-12-06T19:18:03.578Z,7.10
2022-12-06T19:20:49.323Z,7.10
2022-12-06T19:23:35.250Z,7.10
2022-12-06T19:26:21.130Z,7.20
2022-12-06T19:29:07.195Z,7.20
2022-12-06T19:31:52.916Z,7.30
2022-12-06T19:34:38.109Z,7.40
2022-12-06T19:37:26.902Z,7.40
2022-12-06T19:40:12.658Z,7.50
2022-12-06T19:43:17.095Z,7.60
2022-12-06T19:46:09.968Z,7.70
2022-12-06T19:49:01.069Z,7.80
2022-12-06T19:51:47.915Z,7.80
2022-12-06T19:54:33.891Z,7.70
2022-12-06T19:57:19.014Z,7.70
2022-12-06T20:00:05.432Z,7.60
2022-12-06T20:02:57.766Z,7.50
2022-12-06T20:05:46.194Z,7.50
2022-12-06T20:08:34.637Z,7.50
2022-12-06T20:11:41.165Z,7.60
2022-12-06T20:14:28.031Z,7.60
2022-12-06T20:17:19.196Z,7.70
2022-12-06T20:20:16.893Z,7.70
2022-12-06T20:23:07.496Z,7.80
2022-12-06T20:25:59.777Z,7.80
2022-12-06T20:28:47.031Z,7.90
2022-12-06T20:31:32.737Z,7.90
2022-12-06T20:34:18.975Z,7.90
2022-12-06T20:37:05.749Z,7.80
2022-12-06T20:39:51.944Z,7.70
2022-12-06T20:42:39.917Z,7.50
2022-12-06T20:45:25.416Z,7.40
2022-12-06T20:48:10.972Z,7.30
2022-12-06T20:50:59.178Z,7.10
2022-12-06T20:53:47.394Z,7.10
2022-12-06T20:56:36.162Z,7.00
2022-12-06T20:59:21.628Z,7.10
2022-12-06T21:02:09.902Z,7.20
2022-12-06T21:04:55.027Z,7.30
2022-12-06T21:07:40.747Z,7.40
2022-12-06T21:10:29.001Z,7.50
2022-12-06T21:13:14.197Z,7.50
2022-12-06T21:16:08.526Z,7.60
2022-12-06T21:18:59.599Z,7.70
2022-12-06T21:21:56.155Z,7.70
2022-12-06T21:24:41.944Z,7.60
2022-12-06T21:27:28.955Z,7.70
2022-12-06T21:30:14.236Z,7.70
2022-12-06T21:32:59.953Z,7.80
2022-12-06T21:35:45.662Z,7.90
2022-12-06T21:38:32.597Z,7.90
2022-12-06T21:41:18.644Z,7.80
2022-12-06T21:44:04.093Z,7.80
2022-12-06T21:46:56.601Z,7.80
2022-12-06T21:49:42.570Z,7.80
2022-12-06T21:52:27.848Z,7.70
2022-12-06T21:55:13.206Z,7.60
2022-12-06T21:57:59.802Z,7.60
2022-12-06T22:00:45.341Z,7.60
2022-12-06T22:03:30.635Z,7.50
2022-12-06T22:06:20.294Z,7.40
2022-12-06T22:09:06.563Z,7.20
2022-12-06T22:11:54.703Z,7.10
2022-12-06T22:14:40.514Z,7.00
2022-12-06T22:17:28.747Z,6.90
2022-12-06T22:20:14.339Z,6.80
2022-12-06T22:22:59.933Z,6.80
2022-12-06T22:25:45.363Z,6.80
2022-12-06T22:28:30.874Z,6.80
2022-12-06T22:31:16.233Z,6.90
2022-12-06T22:34:02.344Z,7.00
2022-12-06T22:36:47.739Z,7.10
2022-12-06T22:39:33.203Z,7.10
2022-12-06T22:42:18.974Z,7.10
2022-12-06T22:45:05.059Z,7.10
2022-12-06T22:47:53.166Z,7.00
2022-12-06T22:50:47.683Z,6.90
2022-12-06T22:53:33.096Z,6.90
2022-12-06T22:56:21.713Z,6.90
2022-12-06T22:59:09.055Z,7.00
2022-12-06T23:01:54.149Z,7.20
2022-12-06T23:04:39.659Z,7.30
2022-12-06T23:07:25.119Z,7.30
2022-12-06T23:10:11.374Z,7.40
2022-12-06T23:12:56.866Z,7.40
2022-12-06T23:15:42.280Z,7.40
2022-12-06T23:18:29.385Z,7.30
2022-12-06T23:21:23.672Z,7.20
2022-12-06T23:24:11.923Z,7.10
2022-12-06T23:26:58.420Z,6.90
2022-12-06T23:29:47.170Z,6.90
2022-12-06T23:32:57.591Z,6.80
2022-12-06T23:35:45.659Z,6.80
2022-12-06T23:38:31.130Z,6.70
2022-12-06T23:41:27.601Z,6.60
2022-12-06T23:44:13.809Z,6.50
2022-12-06T23:46:59.046Z,6.50
2022-12-06T23:49:47.101Z,6.50
2022-12-06T23:52:32.426Z,6.50
2022-12-06T23:55:20.739Z,6.70
2022-12-06T23:58:06.093Z,6.90
